• Join FlightAware (Why Join?)
  • Login
  • US Flag 
08:44AM EDT


 

Airport Tracker/Info


-or-


 

Live Flight TrackerFlight Track Log ✈ ASQ5240 ✈ 30-Jun-2013 ✈ KATL - KICT

Flight Track Log - Related Links

Times and Time Zones

All times are in EDT time to prevent confusion due to time zone crossing. See the ASQ5240 flight status page for this flight to view local times or setup timezone preferences in your user account.

Time Position Orientation Groundspeed Altitude Reporting Facility
EDT Latitude Longitude Course Direction KTS MPH feet Rate Location/Type
12:48PM 33.6500 -84.4667 284° West 174 200 2,600  Level Atlanta TRACON
12:49PM 33.6667 -84.5500 284° West 248 285 4,200 2,100 Climbing Atlanta TRACON
12:50PM 33.6833 -84.6333 284° West 272 313 6,900 2,760 Climbing Atlanta TRACON
12:51PM 33.7000 -84.7167 284° West 276 318 9,800 2,100 Climbing Atlanta TRACON
12:53PM 33.7239 -84.9681 277° West 328 377 13,900 1,680 Climbing Atlanta Center
12:54PM 33.7481 -85.0831 284° West 342 394 15,500 1,560 Climbing Atlanta Center
12:55PM 33.7658 -85.2083 280° West 364 419 17,100 1,860 Climbing Atlanta Center
12:56PM 33.7853 -85.3311 281° West 373 429 19,300 2,040 Climbing Atlanta Center
12:57PM 33.8069 -85.4514 282° West 373 429 21,200 1,740 Climbing Atlanta Center
12:58PM 33.8264 -85.5767 281° West 373 429 22,800 1,200 Climbing Atlanta Center
12:59PM 33.8603 -85.7050 288° West 385 443 23,700 1,140 Climbing Atlanta Center
01:00PM 33.8964 -85.8131 292° West 402 463 25,100 1,440 Climbing Atlanta Center
01:02PM 33.9758 -86.0703 290° West 407 468 28,100 1,500 Climbing Atlanta Center
01:03PM 34.0111 -86.1989 288° West 407 468 29,600 1,200 Climbing Atlanta Center
01:04PM 34.0483 -86.3303 289° West 407 468 30,500 720 Climbing Atlanta Center
01:05PM 34.0875 -86.4642 289° West 412 474 31,100 540 Climbing Atlanta Center
01:06PM 34.1244 -86.6033 288° West 417 480 31,600 480 Climbing Atlanta Center
01:07PM 34.1592 -86.7275 289° West 431 496 32,000 480 Climbing Memphis Center
01:08PM 34.1989 -86.8767 288° West 463 533 32,500 600 Climbing Memphis Center
01:09PM 34.2406 -87.0206 289° West 464 534 33,200 360 Climbing Memphis Center
01:11PM 34.2857 -87.2289 289° West  Level FlightAware Approximate
01:12PM 34.3644 -87.4686 289° West 474 545 34,000  Level Memphis Center
01:13PM 34.4033 -87.6183 288° West 474 545 34,000  Level Memphis Center
01:14PM 34.4442 -87.7681 288° West 468 539 34,000  Level Memphis Center
01:15PM 34.4825 -87.9181 287° West 473 544 34,000 -360 Level Memphis Center
01:16PM 34.5272 -88.0706 290° West 478 550 33,300 -1,080 Descending Memphis Center
01:17PM 34.5589 -88.2086 286° West 478 550 31,900 -1,440 Descending Memphis Center
01:18PM 34.5967 -88.3539 288° West 470 541 30,500 -960 Descending Memphis Center
01:19PM 34.6389 -88.5094 288° West 453 521 30,000 -300 Descending Memphis Center
01:20PM 34.6761 -88.6425 289° West 448 516 30,000  Level Memphis Center
01:21PM 34.7117 -88.7883 287° West 448 516 30,000  Level Memphis Center
01:23PM 34.7878 -89.0750 288° West 454 522 30,000  Level Memphis Center
01:24PM 34.8247 -89.2186 287° West 454 522 30,000  Level Memphis Center
01:25PM 34.8614 -89.3625 287° West 454 522 30,000  Level Memphis Center
01:26PM 34.8981 -89.5064 287° West 447 514 30,000  Level Memphis Center
01:28PM 34.9769 -89.7969 288° West 455 524 30,000  Level Memphis Center
01:29PM 35.0108 -89.9489 285° West 460 529 30,000  Level Memphis Center
01:30PM 35.0508 -90.0883 289° West 454 522 30,000  Level Memphis Center
01:31PM 35.0969 -90.2328 291° West 449 517 30,000  Level Memphis Center
01:32PM 35.1408 -90.3747 291° West 449 517 30,000  Level Memphis Center
01:33PM 35.1844 -90.5172 291° West 449 517 30,000  Level Memphis Center
01:34PM 35.2344 -90.6747 291° West 454 522 30,000  Level Memphis Center
01:35PM 35.2778 -90.8150 291° West 454 522 30,000  Level Memphis Center
01:36PM 35.3208 -90.9603 290° West 448 516 30,000  Level Memphis Center
01:37PM 35.3558 -91.0725 291° West 448 516 30,000  Level Memphis Center
01:38PM 35.4069 -91.2258 292° West 448 516 30,000  Level Memphis Center
01:39PM 35.4517 -91.3817 289° West 448 516 30,000  Level Memphis Center
01:40PM 35.4881 -91.5044 290° West 442 509 30,000  Level Memphis Center
01:41PM 35.5306 -91.6378 291° West 437 503 30,000  Level Memphis Center
01:42PM 35.5731 -91.7789 290° West 432 497 30,000  Level Memphis Center
01:43PM 35.6131 -91.9147 290° West 432 497 30,000  Level Memphis Center
01:44PM 35.6550 -92.0536 290° West 432 497 30,000  Level Memphis Center
01:45PM 35.6967 -92.1975 290° West 438 504 30,000  Level Memphis Center
01:47PM 35.7800 -92.4731 291° West 438 504 30,000  Level Memphis Center
01:48PM 35.8192 -92.6150 289° West 433 498 30,000  Level Memphis Center
01:49PM 35.8606 -92.7519 290° West 433 498 30,000  Level Memphis Center
01:50PM 35.8994 -92.8889 289° West 433 498 30,000  Level Memphis Center
01:51PM 35.9381 -93.0336 288° West 433 498 30,000  Level Memphis Center
01:52PM 35.9789 -93.1658 291° West 427 491 30,000  Level Memphis Center
01:53PM 36.0175 -93.3056 289° West 427 491 30,000  Level Memphis Center
01:54PM 36.0578 -93.4456 290° West 433 498 30,000  Level Memphis Center
01:55PM 36.0961 -93.5808 289° West 433 498 30,000  Level Memphis Center
01:56PM 36.1364 -93.7211 290° West 433 498 30,000  Level Memphis Center
01:57PM 36.1736 -93.8742 287° West 433 498 30,000  Level Memphis Center
01:58PM 36.2133 -94.0175 289° West 433 498 30,000  Level Memphis Center
01:59PM 36.2494 -94.1375 290° West 427 491 30,000  Level Memphis Center
02:01PM 36.3633 -94.3861 300° West 424 488 30,000  Level Kansas City Center
02:02PM 36.4217 -94.5158 299° West 427 491 30,000  Level Kansas City Center
02:03PM 36.4789 -94.6461 299° West 429 494 30,000  Level Kansas City Center
02:04PM 36.5483 -94.8025 299° West 430 495 30,000 -300 Level Kansas City Center
02:05PM 36.6053 -94.9317 299° West 430 495 29,500 -780 Descending Kansas City Center
02:06PM 36.6603 -95.0569 299° West 424 488 28,500 -1,020 Descending Kansas City Center
02:07PM 36.7142 -95.1797 299° West 414 476 27,500 -960 Descending Kansas City Center
02:08PM 36.7669 -95.3031 298° West 408 470 26,500 -1,080 Descending Kansas City Center
02:09PM 36.8300 -95.4497 298° West 404 465 25,300 -1,080 Descending Kansas City Center
02:10PM 36.8817 -95.5744 297° West 406 467 24,300 -660 Descending Kansas City Center
02:11PM 36.9339 -95.6956 298° West 403 464 24,000 -180 Descending Kansas City Center
02:12PM 36.9850 -95.8175 298° West 400 460 24,000  Level Kansas City Center
02:13PM 37.0369 -95.9414 298° West 400 460 24,000  Level Kansas City Center
02:14PM 37.0900 -96.0669 298° West 404 465 24,000 -1,140 Level Kansas City Center
02:16PM 37.1458 -96.2265 298° West  Level FlightAware Approximate
02:16PM 37.2069 -96.3500 298° West 414 476 20,600  Level Kansas City Center
02:17PM 37.2569 -96.4708 297° West 408 470 18,000 -2,460 Descending Kansas City Center
02:18PM 37.3053 -96.5839 298° West 386 444 15,600 -2,400 Descending Kansas City Center
02:19PM 37.3497 -96.6950 297° West 366 421 13,100 -2,040 Descending Kansas City Center
02:20PM 37.3894 -96.8067 294° West 358 412 11,400 -1,080 Descending Kansas City Center
02:22PM 37.3900 -96.9253 270° West 334 384 10,900 -1,200 Descending Kansas City Center
02:23PM 37.3981 -97.0483 275° West 298 343 9,000 -1,980 Descending Kansas City Center
02:24PM 37.4019 -97.1617 273° West 281 323 6,600 -1,860 Descending Kansas City Center
02:25PM 37.4275 -97.2497 290° West 266 306 5,100 -1,200 Descending Kansas City Center
02:26PM 37.4664 -97.3228 304° West 248 285 4,300 -840 Descending Kansas City Center
02:28PM 37.5503 -97.4286 315° West 207 238 2,700 -600 Descending Kansas City Center
02:29PM 37.5869 -97.4511 334° Northwest 193 222 2,500 -540 Descending Kansas City Center
02:30PM 37.6292 -97.4322 20° North 153 176 1,600 -900 Descending Kansas City Center
02:32PM 37.6499 -97.4331 358° North  Level Estimated
02:39PM 37.6499 -97.4331 38° Northeast  Level Estimated